sensor_id;sensor_type;location;lat;lon;timestamp;P1;durP1;ratioP1;P2;durP2;ratioP2
20287;SDS011;10303;51.960;8.372;2023-11-21T00:01:38;3.47;;;2.87;;
20287;SDS011;10303;51.960;8.372;2023-11-21T00:04:03;2.43;;;2.17;;
20287;SDS011;10303;51.960;8.372;2023-11-21T00:06:29;2.40;;;2.20;;
20287;SDS011;10303;51.960;8.372;2023-11-21T00:08:56;2.33;;;2.13;;
20287;SDS011;10303;51.960;8.372;2023-11-21T00:11:22;2.57;;;2.37;;
20287;SDS011;10303;51.960;8.372;2023-11-21T00:13:48;2.23;;;2.03;;
20287;SDS011;10303;51.960;8.372;2023-11-21T00:16:13;2.23;;;2.03;;
20287;SDS011;10303;51.960;8.372;2023-11-21T00:18:40;1.90;;;1.80;;
20287;SDS011;10303;51.960;8.372;2023-11-21T00:21:06;2.70;;;2.30;;
20287;SDS011;10303;51.960;8.372;2023-11-21T00:23:32;2.40;;;2.20;;
20287;SDS011;10303;51.960;8.372;2023-11-21T00:25:58;3.43;;;2.70;;
20287;SDS011;10303;51.960;8.372;2023-11-21T00:28:24;3.10;;;2.77;;
20287;SDS011;10303;51.960;8.372;2023-11-21T00:30:51;2.43;;;2.23;;
20287;SDS011;10303;51.960;8.372;2023-11-21T00:33:17;2.60;;;2.40;;
20287;SDS011;10303;51.960;8.372;2023-11-21T00:35:44;3.10;;;2.57;;
20287;SDS011;10303;51.960;8.372;2023-11-21T00:38:10;2.90;;;2.67;;
20287;SDS011;10303;51.960;8.372;2023-11-21T00:40:36;2.50;;;2.30;;
20287;SDS011;10303;51.960;8.372;2023-11-21T00:43:03;3.30;;;3.00;;
20287;SDS011;10303;51.960;8.372;2023-11-21T00:45:29;2.97;;;2.73;;
20287;SDS011;10303;51.960;8.372;2023-11-21T00:47:55;3.87;;;2.23;;
20287;SDS011;10303;51.960;8.372;2023-11-21T00:50:21;3.20;;;2.90;;
20287;SDS011;10303;51.960;8.372;2023-11-21T00:52:47;3.13;;;2.80;;
20287;SDS011;10303;51.960;8.372;2023-11-21T00:55:13;3.17;;;2.97;;
20287;SDS011;10303;51.960;8.372;2023-11-21T00:57:39;3.73;;;3.33;;
20287;SDS011;10303;51.960;8.372;2023-11-21T01:00:05;3.20;;;2.90;;
20287;SDS011;10303;51.960;8.372;2023-11-21T01:02:46;2.97;;;2.67;;
20287;SDS011;10303;51.960;8.372;2023-11-21T01:05:13;4.27;;;3.07;;
20287;SDS011;10303;51.960;8.372;2023-11-21T01:07:39;3.60;;;3.00;;
20287;SDS011;10303;51.960;8.372;2023-11-21T01:10:05;2.57;;;2.33;;
20287;SDS011;10303;51.960;8.372;2023-11-21T01:12:37;2.93;;;2.63;;
20287;SDS011;10303;51.960;8.372;2023-11-21T01:15:04;3.47;;;3.00;;
20287;SDS011;10303;51.960;8.372;2023-11-21T01:17:37;3.17;;;2.57;;
20287;SDS011;10303;51.960;8.372;2023-11-21T01:20:03;3.70;;;3.40;;
20287;SDS011;10303;51.960;8.372;2023-11-21T01:22:36;4.07;;;3.43;;
20287;SDS011;10303;51.960;8.372;2023-11-21T01:25:02;3.30;;;2.77;;
20287;SDS011;10303;51.960;8.372;2023-11-21T01:27:31;3.33;;;2.93;;
20287;SDS011;10303;51.960;8.372;2023-11-21T01:30:02;3.87;;;3.17;;
20287;SDS011;10303;51.960;8.372;2023-11-21T01:32:29;3.83;;;3.37;;
20287;SDS011;10303;51.960;8.372;2023-11-21T01:34:55;2.87;;;2.57;;
20287;SDS011;10303;51.960;8.372;2023-11-21T01:37:21;3.50;;;3.20;;
20287;SDS011;10303;51.960;8.372;2023-11-21T01:39:47;3.33;;;3.03;;
20287;SDS011;10303;51.960;8.372;2023-11-21T01:42:14;4.10;;;3.40;;
20287;SDS011;10303;51.960;8.372;2023-11-21T01:44:40;3.90;;;3.50;;
20287;SDS011;10303;51.960;8.372;2023-11-21T01:47:06;2.90;;;2.70;;
20287;SDS011;10303;51.960;8.372;2023-11-21T01:49:34;3.10;;;2.83;;
20287;SDS011;10303;51.960;8.372;2023-11-21T01:52:01;3.87;;;3.30;;
20287;SDS011;10303;51.960;8.372;2023-11-21T01:54:29;4.20;;;2.93;;
20287;SDS011;10303;51.960;8.372;2023-11-21T01:56:57;3.00;;;2.70;;
20287;SDS011;10303;51.960;8.372;2023-11-21T01:59:30;3.03;;;2.73;;
20287;SDS011;10303;51.960;8.372;2023-11-21T02:02:04;4.80;;;3.40;;
20287;SDS011;10303;51.960;8.372;2023-11-21T02:04:32;4.57;;;3.07;;
20287;SDS011;10303;51.960;8.372;2023-11-21T02:06:59;3.17;;;2.93;;
20287;SDS011;10303;51.960;8.372;2023-11-21T02:09:27;3.30;;;2.47;;
20287;SDS011;10303;51.960;8.372;2023-11-21T02:11:55;4.37;;;3.13;;
20287;SDS011;10303;51.960;8.372;2023-11-21T02:14:22;4.10;;;3.67;;
20287;SDS011;10303;51.960;8.372;2023-11-21T02:16:50;3.77;;;3.03;;
20287;SDS011;10303;51.960;8.372;2023-11-21T02:19:17;2.97;;;2.67;;
20287;SDS011;10303;51.960;8.372;2023-11-21T02:21:51;3.03;;;2.70;;
20287;SDS011;10303;51.960;8.372;2023-11-21T02:24:19;2.67;;;2.40;;
20287;SDS011;10303;51.960;8.372;2023-11-21T02:26:46;3.10;;;2.80;;
20287;SDS011;10303;51.960;8.372;2023-11-21T02:29:14;3.37;;;2.40;;
20287;SDS011;10303;51.960;8.372;2023-11-21T02:31:43;2.50;;;2.10;;
20287;SDS011;10303;51.960;8.372;2023-11-21T02:34:15;2.43;;;2.23;;
20287;SDS011;10303;51.960;8.372;2023-11-21T02:36:43;3.10;;;2.80;;
20287;SDS011;10303;51.960;8.372;2023-11-21T02:39:11;3.10;;;2.80;;
20287;SDS011;10303;51.960;8.372;2023-11-21T02:41:37;2.83;;;2.63;;
20287;SDS011;10303;51.960;8.372;2023-11-21T02:44:04;3.20;;;2.90;;
20287;SDS011;10303;51.960;8.372;2023-11-21T02:46:35;3.10;;;2.80;;
20287;SDS011;10303;51.960;8.372;2023-11-21T02:49:05;3.73;;;3.30;;
20287;SDS011;10303;51.960;8.372;2023-11-21T02:51:32;3.00;;;2.77;;
20287;SDS011;10303;51.960;8.372;2023-11-21T02:53:59;2.53;;;2.33;;
20287;SDS011;10303;51.960;8.372;2023-11-21T02:56:28;3.33;;;3.03;;
20287;SDS011;10303;51.960;8.372;2023-11-21T02:58:59;4.30;;;3.17;;
20287;SDS011;10303;51.960;8.372;2023-11-21T03:01:26;2.80;;;2.60;;
20287;SDS011;10303;51.960;8.372;2023-11-21T03:03:53;3.53;;;2.77;;
20287;SDS011;10303;51.960;8.372;2023-11-21T03:06:20;3.47;;;3.17;;
20287;SDS011;10303;51.960;8.372;2023-11-21T03:08:46;2.80;;;2.60;;
20287;SDS011;10303;51.960;8.372;2023-11-21T03:11:13;2.80;;;2.60;;
20287;SDS011;10303;51.960;8.372;2023-11-21T03:13:39;5.03;;;3.20;;
20287;SDS011;10303;51.960;8.372;2023-11-21T03:16:09;4.17;;;2.63;;
20287;SDS011;10303;51.960;8.372;2023-11-21T03:18:37;2.33;;;2.13;;
20287;SDS011;10303;51.960;8.372;2023-11-21T03:21:04;3.03;;;2.67;;
20287;SDS011;10303;51.960;8.372;2023-11-21T03:23:34;2.80;;;2.60;;
20287;SDS011;10303;51.960;8.372;2023-11-21T03:26:02;3.30;;;3.00;;
20287;SDS011;10303;51.960;8.372;2023-11-21T03:28:29;3.23;;;2.93;;
20287;SDS011;10303;51.960;8.372;2023-11-21T03:30:56;3.87;;;2.67;;
20287;SDS011;10303;51.960;8.372;2023-11-21T03:33:23;4.03;;;3.57;;
20287;SDS011;10303;51.960;8.372;2023-11-21T03:35:50;3.23;;;2.90;;
20287;SDS011;10303;51.960;8.372;2023-11-21T03:38:18;3.07;;;2.77;;
20287;SDS011;10303;51.960;8.372;2023-11-21T03:40:44;2.97;;;2.70;;
20287;SDS011;10303;51.960;8.372;2023-11-21T03:43:10;3.10;;;2.83;;
20287;SDS011;10303;51.960;8.372;2023-11-21T03:45:36;5.63;;;4.00;;
20287;SDS011;10303;51.960;8.372;2023-11-21T03:48:02;3.47;;;3.17;;
20287;SDS011;10303;51.960;8.372;2023-11-21T03:50:29;3.13;;;2.70;;
20287;SDS011;10303;51.960;8.372;2023-11-21T03:52:55;3.97;;;3.13;;
20287;SDS011;10303;51.960;8.372;2023-11-21T03:55:21;3.63;;;3.33;;
20287;SDS011;10303;51.960;8.372;2023-11-21T03:57:48;5.80;;;4.53;;
20287;SDS011;10303;51.960;8.372;2023-11-21T04:00:14;5.90;;;5.27;;
20287;SDS011;10303;51.960;8.372;2023-11-21T04:02:41;3.90;;;3.57;;
20287;SDS011;10303;51.960;8.372;2023-11-21T04:05:07;4.20;;;3.80;;
20287;SDS011;10303;51.960;8.372;2023-11-21T04:07:34;3.40;;;3.10;;
20287;SDS011;10303;51.960;8.372;2023-11-21T04:10:02;3.80;;;3.50;;
20287;SDS011;10303;51.960;8.372;2023-11-21T04:12:28;5.97;;;4.70;;
20287;SDS011;10303;51.960;8.372;2023-11-21T04:14:54;4.97;;;3.50;;
20287;SDS011;10303;51.960;8.372;2023-11-21T04:17:20;5.77;;;3.40;;
20287;SDS011;10303;51.960;8.372;2023-11-21T04:19:46;6.43;;;3.47;;
20287;SDS011;10303;51.960;8.372;2023-11-21T04:22:12;3.37;;;3.07;;
20287;SDS011;10303;51.960;8.372;2023-11-21T04:24:38;4.37;;;3.97;;
20287;SDS011;10303;51.960;8.372;2023-11-21T04:27:04;5.67;;;4.97;;
20287;SDS011;10303;51.960;8.372;2023-11-21T04:29:30;8.20;;;6.00;;
20287;SDS011;10303;51.960;8.372;2023-11-21T04:31:56;5.50;;;4.43;;
20287;SDS011;10303;51.960;8.372;2023-11-21T04:34:22;6.10;;;3.73;;
20287;SDS011;10303;51.960;8.372;2023-11-21T04:36:49;3.83;;;3.40;;
20287;SDS011;10303;51.960;8.372;2023-11-21T04:39:15;4.43;;;3.83;;
20287;SDS011;10303;51.960;8.372;2023-11-21T04:41:41;4.93;;;3.63;;
20287;SDS011;10303;51.960;8.372;2023-11-21T04:44:08;2.90;;;2.67;;
20287;SDS011;10303;51.960;8.372;2023-11-21T04:46:34;4.07;;;2.90;;
20287;SDS011;10303;51.960;8.372;2023-11-21T04:49:00;3.27;;;2.97;;
20287;SDS011;10303;51.960;8.372;2023-11-21T04:51:25;6.13;;;3.17;;
20287;SDS011;10303;51.960;8.372;2023-11-21T04:53:52;3.40;;;3.10;;
20287;SDS011;10303;51.960;8.372;2023-11-21T04:56:18;4.07;;;3.60;;
20287;SDS011;10303;51.960;8.372;2023-11-21T04:58:44;4.47;;;3.33;;
20287;SDS011;10303;51.960;8.372;2023-11-21T05:01:10;3.50;;;2.97;;
20287;SDS011;10303;51.960;8.372;2023-11-21T05:03:37;4.83;;;3.40;;
20287;SDS011;10303;51.960;8.372;2023-11-21T05:06:04;3.97;;;2.90;;
20287;SDS011;10303;51.960;8.372;2023-11-21T05:08:30;3.40;;;3.10;;
20287;SDS011;10303;51.960;8.372;2023-11-21T05:10:56;3.93;;;2.90;;
20287;SDS011;10303;51.960;8.372;2023-11-21T05:13:23;4.10;;;3.13;;
20287;SDS011;10303;51.960;8.372;2023-11-21T05:15:53;2.93;;;2.73;;
20287;SDS011;10303;51.960;8.372;2023-11-21T05:18:22;3.63;;;3.33;;
20287;SDS011;10303;51.960;8.372;2023-11-21T05:20:48;3.07;;;2.80;;
20287;SDS011;10303;51.960;8.372;2023-11-21T05:23:15;3.27;;;2.83;;
20287;SDS011;10303;51.960;8.372;2023-11-21T05:25:41;3.27;;;2.93;;
20287;SDS011;10303;51.960;8.372;2023-11-21T05:28:07;5.03;;;2.67;;
20287;SDS011;10303;51.960;8.372;2023-11-21T05:30:33;3.63;;;3.13;;
20287;SDS011;10303;51.960;8.372;2023-11-21T05:32:59;2.60;;;2.37;;
20287;SDS011;10303;51.960;8.372;2023-11-21T05:35:25;3.30;;;3.00;;
20287;SDS011;10303;51.960;8.372;2023-11-21T05:37:51;4.13;;;2.47;;
20287;SDS011;10303;51.960;8.372;2023-11-21T05:40:17;2.47;;;2.27;;
20287;SDS011;10303;51.960;8.372;2023-11-21T05:42:43;3.20;;;2.60;;
20287;SDS011;10303;51.960;8.372;2023-11-21T05:45:10;3.33;;;2.40;;
20287;SDS011;10303;51.960;8.372;2023-11-21T05:47:36;6.37;;;3.23;;
20287;SDS011;10303;51.960;8.372;2023-11-21T05:50:06;3.30;;;2.70;;
20287;SDS011;10303;51.960;8.372;2023-11-21T05:52:37;3.50;;;3.00;;
20287;SDS011;10303;51.960;8.372;2023-11-21T05:55:07;3.93;;;3.53;;
20287;SDS011;10303;51.960;8.372;2023-11-21T05:57:37;4.87;;;4.30;;
20287;SDS011;10303;51.960;8.372;2023-11-21T06:02:37;3.37;;;3.07;;
20287;SDS011;10303;51.960;8.372;2023-11-21T06:05:04;5.53;;;4.33;;
20287;SDS011;10303;51.960;8.372;2023-11-21T06:07:32;3.50;;;3.20;;
20287;SDS011;10303;51.960;8.372;2023-11-21T06:09:58;6.10;;;3.10;;
20287;SDS011;10303;51.960;8.372;2023-11-21T06:12:24;3.80;;;2.80;;
20287;SDS011;10303;51.960;8.372;2023-11-21T06:14:50;3.23;;;2.80;;
20287;SDS011;10303;51.960;8.372;2023-11-21T06:17:16;3.33;;;2.60;;
20287;SDS011;10303;51.960;8.372;2023-11-21T06:19:43;2.80;;;2.47;;
20287;SDS011;10303;51.960;8.372;2023-11-21T06:22:11;3.50;;;3.20;;
20287;SDS011;10303;51.960;8.372;2023-11-21T06:24:37;3.60;;;3.23;;
20287;SDS011;10303;51.960;8.372;2023-11-21T06:27:03;5.60;;;4.67;;
20287;SDS011;10303;51.960;8.372;2023-11-21T06:29:30;5.83;;;4.77;;
20287;SDS011;10303;51.960;8.372;2023-11-21T06:31:57;7.53;;;4.57;;
20287;SDS011;10303;51.960;8.372;2023-11-21T06:34:23;6.33;;;5.37;;
20287;SDS011;10303;51.960;8.372;2023-11-21T06:36:49;6.40;;;5.70;;
20287;SDS011;10303;51.960;8.372;2023-11-21T06:39:16;7.47;;;5.30;;
20287;SDS011;10303;51.960;8.372;2023-11-21T06:41:42;7.43;;;5.40;;
20287;SDS011;10303;51.960;8.372;2023-11-21T06:44:08;5.87;;;5.23;;
20287;SDS011;10303;51.960;8.372;2023-11-21T06:46:34;5.33;;;3.93;;
20287;SDS011;10303;51.960;8.372;2023-11-21T06:49:00;5.50;;;4.07;;
20287;SDS011;10303;51.960;8.372;2023-11-21T06:51:26;4.03;;;3.63;;
20287;SDS011;10303;51.960;8.372;2023-11-21T06:53:52;4.53;;;3.97;;
20287;SDS011;10303;51.960;8.372;2023-11-21T06:56:18;10.03;;;6.20;;
20287;SDS011;10303;51.960;8.372;2023-11-21T06:58:47;10.33;;;6.80;;
20287;SDS011;10303;51.960;8.372;2023-11-21T07:01:14;14.00;;;6.77;;
20287;SDS011;10303;51.960;8.372;2023-11-21T07:03:40;8.10;;;6.20;;
20287;SDS011;10303;51.960;8.372;2023-11-21T07:06:07;7.67;;;5.77;;
20287;SDS011;10303;51.960;8.372;2023-11-21T07:08:33;6.63;;;5.53;;
20287;SDS011;10303;51.960;8.372;2023-11-21T07:10:59;8.40;;;5.67;;
20287;SDS011;10303;51.960;8.372;2023-11-21T07:13:25;10.90;;;6.53;;
20287;SDS011;10303;51.960;8.372;2023-11-21T07:15:51;7.63;;;5.40;;
20287;SDS011;10303;51.960;8.372;2023-11-21T07:18:17;4.80;;;3.60;;
20287;SDS011;10303;51.960;8.372;2023-11-21T07:20:43;11.47;;;6.33;;
20287;SDS011;10303;51.960;8.372;2023-11-21T07:23:09;10.47;;;6.90;;
20287;SDS011;10303;51.960;8.372;2023-11-21T07:25:35;11.00;;;7.57;;
20287;SDS011;10303;51.960;8.372;2023-11-21T07:28:01;7.30;;;5.70;;
20287;SDS011;10303;51.960;8.372;2023-11-21T07:30:30;9.27;;;6.33;;
20287;SDS011;10303;51.960;8.372;2023-11-21T07:32:56;8.13;;;6.50;;
20287;SDS011;10303;51.960;8.372;2023-11-21T07:35:22;9.90;;;7.97;;
20287;SDS011;10303;51.960;8.372;2023-11-21T07:37:48;13.40;;;8.80;;
20287;SDS011;10303;51.960;8.372;2023-11-21T07:40:14;11.20;;;6.70;;
20287;SDS011;10303;51.960;8.372;2023-11-21T07:42:42;13.47;;;7.37;;
20287;SDS011;10303;51.960;8.372;2023-11-21T07:45:09;11.97;;;8.13;;
20287;SDS011;10303;51.960;8.372;2023-11-21T07:47:36;14.87;;;9.97;;
20287;SDS011;10303;51.960;8.372;2023-11-21T07:50:04;18.43;;;10.73;;
20287;SDS011;10303;51.960;8.372;2023-11-21T07:52:32;16.87;;;9.93;;
20287;SDS011;10303;51.960;8.372;2023-11-21T07:54:58;14.47;;;8.77;;
20287;SDS011;10303;51.960;8.372;2023-11-21T07:57:24;13.13;;;8.73;;
20287;SDS011;10303;51.960;8.372;2023-11-21T07:59:51;17.87;;;9.73;;
20287;SDS011;10303;51.960;8.372;2023-11-21T08:02:19;13.67;;;8.70;;
20287;SDS011;10303;51.960;8.372;2023-11-21T08:04:44;13.37;;;9.00;;
20287;SDS011;10303;51.960;8.372;2023-11-21T08:07:10;16.57;;;9.80;;
20287;SDS011;10303;51.960;8.372;2023-11-21T08:09:36;18.50;;;10.27;;
20287;SDS011;10303;51.960;8.372;2023-11-21T08:12:03;17.00;;;10.37;;
20287;SDS011;10303;51.960;8.372;2023-11-21T08:14:30;23.60;;;11.60;;
20287;SDS011;10303;51.960;8.372;2023-11-21T08:16:56;16.77;;;10.33;;
20287;SDS011;10303;51.960;8.372;2023-11-21T08:19:23;13.83;;;9.30;;
20287;SDS011;10303;51.960;8.372;2023-11-21T08:21:52;16.43;;;10.30;;
20287;SDS011;10303;51.960;8.372;2023-11-21T08:24:20;16.40;;;9.33;;
20287;SDS011;10303;51.960;8.372;2023-11-21T08:26:47;14.17;;;8.60;;
20287;SDS011;10303;51.960;8.372;2023-11-21T08:29:13;13.40;;;9.27;;
20287;SDS011;10303;51.960;8.372;2023-11-21T08:31:39;18.43;;;8.83;;
20287;SDS011;10303;51.960;8.372;2023-11-21T08:34:06;14.40;;;8.97;;
20287;SDS011;10303;51.960;8.372;2023-11-21T08:36:32;15.13;;;8.60;;
20287;SDS011;10303;51.960;8.372;2023-11-21T08:38:58;14.93;;;9.07;;
20287;SDS011;10303;51.960;8.372;2023-11-21T08:41:24;16.73;;;9.03;;
20287;SDS011;10303;51.960;8.372;2023-11-21T08:43:50;15.03;;;9.40;;
20287;SDS011;10303;51.960;8.372;2023-11-21T08:46:16;15.47;;;9.27;;
20287;SDS011;10303;51.960;8.372;2023-11-21T08:48:43;16.17;;;8.50;;
20287;SDS011;10303;51.960;8.372;2023-11-21T08:51:09;7.87;;;5.40;;
20287;SDS011;10303;51.960;8.372;2023-11-21T08:53:39;7.77;;;4.97;;
20287;SDS011;10303;51.960;8.372;2023-11-21T08:56:05;8.40;;;6.60;;
20287;SDS011;10303;51.960;8.372;2023-11-21T08:58:32;13.80;;;8.63;;
20287;SDS011;10303;51.960;8.372;2023-11-21T09:00:58;8.90;;;6.07;;
20287;SDS011;10303;51.960;8.372;2023-11-21T09:03:24;11.83;;;6.57;;
20287;SDS011;10303;51.960;8.372;2023-11-21T09:05:50;9.03;;;5.17;;
20287;SDS011;10303;51.960;8.372;2023-11-21T09:08:16;10.10;;;6.23;;
20287;SDS011;10303;51.960;8.372;2023-11-21T09:10:42;11.27;;;6.57;;
20287;SDS011;10303;51.960;8.372;2023-11-21T09:13:12;9.07;;;5.90;;
20287;SDS011;10303;51.960;8.372;2023-11-21T09:15:38;11.00;;;7.30;;
20287;SDS011;10303;51.960;8.372;2023-11-21T09:18:05;11.27;;;5.60;;
20287;SDS011;10303;51.960;8.372;2023-11-21T09:20:31;8.30;;;5.60;;
20287;SDS011;10303;51.960;8.372;2023-11-21T09:22:57;6.83;;;5.53;;
20287;SDS011;10303;51.960;8.372;2023-11-21T09:25:23;4.73;;;3.77;;
20287;SDS011;10303;51.960;8.372;2023-11-21T09:27:49;7.63;;;4.40;;
20287;SDS011;10303;51.960;8.372;2023-11-21T09:30:14;8.90;;;5.00;;
20287;SDS011;10303;51.960;8.372;2023-11-21T09:32:41;6.93;;;4.53;;
20287;SDS011;10303;51.960;8.372;2023-11-21T09:35:10;7.60;;;3.73;;
20287;SDS011;10303;51.960;8.372;2023-11-21T09:37:39;5.27;;;3.67;;
20287;SDS011;10303;51.960;8.372;2023-11-21T09:40:05;6.47;;;3.33;;
20287;SDS011;10303;51.960;8.372;2023-11-21T09:42:56;4.40;;;3.80;;
20287;SDS011;10303;51.960;8.372;2023-11-21T09:45:27;4.13;;;3.27;;
20287;SDS011;10303;51.960;8.372;2023-11-21T09:47:56;4.53;;;3.37;;
20287;SDS011;10303;51.960;8.372;2023-11-21T09:50:23;4.47;;;2.40;;
20287;SDS011;10303;51.960;8.372;2023-11-21T09:52:55;3.23;;;2.70;;
20287;SDS011;10303;51.960;8.372;2023-11-21T09:55:43;2.10;;;1.80;;
20287;SDS011;10303;51.960;8.372;2023-11-21T09:58:11;3.40;;;2.67;;
20287;SDS011;10303;51.960;8.372;2023-11-21T10:00:42;3.27;;;2.63;;
20287;SDS011;10303;51.960;8.372;2023-11-21T10:03:14;3.60;;;2.57;;
20287;SDS011;10303;51.960;8.372;2023-11-21T10:05:42;2.00;;;1.73;;
20287;SDS011;10303;51.960;8.372;2023-11-21T10:08:11;2.03;;;1.73;;
20287;SDS011;10303;51.960;8.372;2023-11-21T10:10:38;4.67;;;1.87;;
20287;SDS011;10303;51.960;8.372;2023-11-21T10:13:16;2.20;;;2.00;;
20287;SDS011;10303;51.960;8.372;2023-11-21T10:15:47;2.27;;;2.03;;
20287;SDS011;10303;51.960;8.372;2023-11-21T10:18:17;2.33;;;2.03;;
20287;SDS011;10303;51.960;8.372;2023-11-21T10:20:44;2.83;;;2.50;;
20287;SDS011;10303;51.960;8.372;2023-11-21T10:23:18;3.47;;;2.80;;
20287;SDS011;10303;51.960;8.372;2023-11-21T10:25:46;5.93;;;3.03;;
20287;SDS011;10303;51.960;8.372;2023-11-21T10:28:12;3.20;;;2.33;;
20287;SDS011;10303;51.960;8.372;2023-11-21T10:30:38;4.57;;;2.33;;
20287;SDS011;10303;51.960;8.372;2023-11-21T10:33:05;2.83;;;2.50;;
20287;SDS011;10303;51.960;8.372;2023-11-21T10:35:48;2.80;;;2.33;;
20287;SDS011;10303;51.960;8.372;2023-11-21T10:38:20;2.67;;;1.90;;
20287;SDS011;10303;51.960;8.372;2023-11-21T10:40:48;2.30;;;1.60;;
20287;SDS011;10303;51.960;8.372;2023-11-21T10:43:15;2.50;;;1.87;;
20287;SDS011;10303;51.960;8.372;2023-11-21T10:45:43;2.23;;;2.10;;
20287;SDS011;10303;51.960;8.372;2023-11-21T10:48:10;1.83;;;1.70;;
20287;SDS011;10303;51.960;8.372;2023-11-21T10:50:45;2.13;;;1.90;;
20287;SDS011;10303;51.960;8.372;2023-11-21T10:53:12;2.83;;;2.03;;
20287;SDS011;10303;51.960;8.372;2023-11-21T10:55:38;1.97;;;1.77;;
20287;SDS011;10303;51.960;8.372;2023-11-21T10:58:04;1.63;;;1.53;;
20287;SDS011;10303;51.960;8.372;2023-11-21T11:00:33;2.47;;;2.27;;
20287;SDS011;10303;51.960;8.372;2023-11-21T11:02:59;2.47;;;2.27;;
20287;SDS011;10303;51.960;8.372;2023-11-21T11:05:28;2.30;;;2.10;;
20287;SDS011;10303;51.960;8.372;2023-11-21T11:08:03;2.20;;;1.87;;
20287;SDS011;10303;51.960;8.372;2023-11-21T11:10:33;2.10;;;1.90;;
20287;SDS011;10303;51.960;8.372;2023-11-21T11:13:00;2.07;;;1.70;;
20287;SDS011;10303;51.960;8.372;2023-11-21T11:15:26;1.60;;;1.50;;
20287;SDS011;10303;51.960;8.372;2023-11-21T11:17:53;2.33;;;1.73;;
20287;SDS011;10303;51.960;8.372;2023-11-21T11:20:27;2.03;;;1.63;;
20287;SDS011;10303;51.960;8.372;2023-11-21T11:26:05;2.00;;;1.70;;
20287;SDS011;10303;51.960;8.372;2023-11-21T11:32:06;1.63;;;1.53;;
20287;SDS011;10303;51.960;8.372;2023-11-21T11:34:47;1.33;;;1.23;;
20287;SDS011;10303;51.960;8.372;2023-11-21T11:37:33;1.73;;;1.43;;
20287;SDS011;10303;51.960;8.372;2023-11-21T11:39:59;2.37;;;1.60;;
20287;SDS011;10303;51.960;8.372;2023-11-21T11:42:25;4.33;;;1.30;;
20287;SDS011;10303;51.960;8.372;2023-11-21T11:44:52;2.47;;;1.43;;
20287;SDS011;10303;51.960;8.372;2023-11-21T11:50:05;2.07;;;1.43;;
20287;SDS011;10303;51.960;8.372;2023-11-21T11:52:42;1.73;;;1.63;;
20287;SDS011;10303;51.960;8.372;2023-11-21T11:55:14;1.60;;;1.50;;
20287;SDS011;10303;51.960;8.372;2023-11-21T11:57:44;1.30;;;1.10;;
20287;SDS011;10303;51.960;8.372;2023-11-21T12:02:56;1.97;;;1.60;;
20287;SDS011;10303;51.960;8.372;2023-11-21T12:05:25;1.60;;;1.50;;
20287;SDS011;10303;51.960;8.372;2023-11-21T12:07:58;1.63;;;1.53;;
20287;SDS011;10303;51.960;8.372;2023-11-21T12:10:28;1.90;;;1.60;;
20287;SDS011;10303;51.960;8.372;2023-11-21T12:15:24;1.70;;;1.60;;
20287;SDS011;10303;51.960;8.372;2023-11-21T12:17:52;1.70;;;1.60;;
20287;SDS011;10303;51.960;8.372;2023-11-21T12:20:18;1.90;;;1.50;;
20287;SDS011;10303;51.960;8.372;2023-11-21T12:22:47;1.87;;;1.67;;
20287;SDS011;10303;51.960;8.372;2023-11-21T12:25:13;2.27;;;2.17;;
20287;SDS011;10303;51.960;8.372;2023-11-21T12:27:45;2.43;;;1.80;;
20287;SDS011;10303;51.960;8.372;2023-11-21T12:30:14;2.37;;;1.80;;
20287;SDS011;10303;51.960;8.372;2023-11-21T12:32:43;3.83;;;2.80;;
20287;SDS011;10303;51.960;8.372;2023-11-21T12:35:11;3.07;;;2.20;;
20287;SDS011;10303;51.960;8.372;2023-11-21T12:37:38;2.80;;;2.60;;
20287;SDS011;10303;51.960;8.372;2023-11-21T12:40:06;3.87;;;2.57;;
20287;SDS011;10303;51.960;8.372;2023-11-21T12:42:33;3.93;;;2.97;;
20287;SDS011;10303;51.960;8.372;2023-11-21T12:47:42;4.57;;;3.13;;
20287;SDS011;10303;51.960;8.372;2023-11-21T12:50:33;3.23;;;2.80;;
20287;SDS011;10303;51.960;8.372;2023-11-21T12:53:11;2.33;;;2.07;;
20287;SDS011;10303;51.960;8.372;2023-11-21T12:55:38;2.97;;;2.57;;
20287;SDS011;10303;51.960;8.372;2023-11-21T12:58:08;3.30;;;2.93;;
20287;SDS011;10303;51.960;8.372;2023-11-21T13:00:36;3.33;;;2.90;;
20287;SDS011;10303;51.960;8.372;2023-11-21T13:03:07;3.17;;;2.23;;
20287;SDS011;10303;51.960;8.372;2023-11-21T13:05:38;2.70;;;2.27;;
20287;SDS011;10303;51.960;8.372;2023-11-21T13:08:10;3.53;;;2.90;;
20287;SDS011;10303;51.960;8.372;2023-11-21T13:10:39;4.30;;;3.13;;
20287;SDS011;10303;51.960;8.372;2023-11-21T13:13:10;3.50;;;3.10;;
20287;SDS011;10303;51.960;8.372;2023-11-21T13:15:49;3.47;;;3.17;;
20287;SDS011;10303;51.960;8.372;2023-11-21T13:18:26;5.33;;;2.93;;
20287;SDS011;10303;51.960;8.372;2023-11-21T13:20:54;4.27;;;3.10;;
20287;SDS011;10303;51.960;8.372;2023-11-21T13:23:23;7.10;;;2.87;;
20287;SDS011;10303;51.960;8.372;2023-11-21T13:25:49;3.13;;;2.60;;
20287;SDS011;10303;51.960;8.372;2023-11-21T13:28:16;4.17;;;2.80;;
20287;SDS011;10303;51.960;8.372;2023-11-21T13:30:48;3.10;;;2.80;;
20287;SDS011;10303;51.960;8.372;2023-11-21T13:33:17;4.60;;;2.63;;
20287;SDS011;10303;51.960;8.372;2023-11-21T13:35:47;3.70;;;3.00;;
20287;SDS011;10303;51.960;8.372;2023-11-21T13:38:16;4.60;;;2.40;;
20287;SDS011;10303;51.960;8.372;2023-11-21T13:40:47;3.90;;;3.00;;
20287;SDS011;10303;51.960;8.372;2023-11-21T13:43:19;2.33;;;2.13;;
20287;SDS011;10303;51.960;8.372;2023-11-21T13:45:49;3.83;;;2.17;;
20287;SDS011;10303;51.960;8.372;2023-11-21T13:48:20;2.97;;;2.40;;
20287;SDS011;10303;51.960;8.372;2023-11-21T13:50:53;4.70;;;2.00;;
20287;SDS011;10303;51.960;8.372;2023-11-21T13:53:38;2.50;;;2.17;;
20287;SDS011;10303;51.960;8.372;2023-11-21T13:56:06;2.53;;;1.90;;
20287;SDS011;10303;51.960;8.372;2023-11-21T13:58:33;2.63;;;2.20;;
20287;SDS011;10303;51.960;8.372;2023-11-21T14:01:16;2.50;;;2.30;;
20287;SDS011;10303;51.960;8.372;2023-11-21T14:04:00;4.70;;;2.47;;
20287;SDS011;10303;51.960;8.372;2023-11-21T14:06:42;1.83;;;1.63;;
20287;SDS011;10303;51.960;8.372;2023-11-21T14:09:16;2.90;;;2.27;;
20287;SDS011;10303;51.960;8.372;2023-11-21T14:11:51;2.83;;;2.33;;
20287;SDS011;10303;51.960;8.372;2023-11-21T14:14:24;2.40;;;1.87;;
20287;SDS011;10303;51.960;8.372;2023-11-21T14:16:51;1.90;;;1.80;;
20287;SDS011;10303;51.960;8.372;2023-11-21T14:19:18;2.40;;;2.20;;
20287;SDS011;10303;51.960;8.372;2023-11-21T14:21:44;2.80;;;2.50;;
20287;SDS011;10303;51.960;8.372;2023-11-21T14:24:11;2.93;;;2.30;;
20287;SDS011;10303;51.960;8.372;2023-11-21T14:26:40;3.90;;;2.23;;
20287;SDS011;10303;51.960;8.372;2023-11-21T14:29:08;2.83;;;2.50;;
20287;SDS011;10303;51.960;8.372;2023-11-21T14:31:37;2.47;;;1.80;;
20287;SDS011;10303;51.960;8.372;2023-11-21T14:34:03;2.57;;;2.37;;
20287;SDS011;10303;51.960;8.372;2023-11-21T14:36:32;1.70;;;1.53;;
20287;SDS011;10303;51.960;8.372;2023-11-21T14:38:59;3.87;;;2.23;;
20287;SDS011;10303;51.960;8.372;2023-11-21T14:41:25;2.47;;;2.27;;
20287;SDS011;10303;51.960;8.372;2023-11-21T14:43:54;3.00;;;2.20;;
20287;SDS011;10303;51.960;8.372;2023-11-21T14:46:22;2.00;;;1.80;;
20287;SDS011;10303;51.960;8.372;2023-11-21T14:48:48;2.57;;;1.90;;
20287;SDS011;10303;51.960;8.372;2023-11-21T14:51:25;3.17;;;2.87;;
20287;SDS011;10303;51.960;8.372;2023-11-21T14:53:53;2.83;;;2.30;;
20287;SDS011;10303;51.960;8.372;2023-11-21T14:56:23;3.00;;;2.63;;
20287;SDS011;10303;51.960;8.372;2023-11-21T14:58:54;3.63;;;2.63;;
20287;SDS011;10303;51.960;8.372;2023-11-21T15:01:22;2.53;;;2.33;;
20287;SDS011;10303;51.960;8.372;2023-11-21T15:04:10;2.30;;;1.97;;
20287;SDS011;10303;51.960;8.372;2023-11-21T15:06:46;2.70;;;2.20;;
20287;SDS011;10303;51.960;8.372;2023-11-21T15:09:13;2.40;;;2.20;;
20287;SDS011;10303;51.960;8.372;2023-11-21T15:11:39;2.53;;;2.20;;